sensor_id;sensor_type;location;lat;lon;timestamp;pressure;altitude;pressure_sealevel;temperature
70415;BMP280;57837;52.064;113.478;2024-03-08T00:02:01;94153.88;;;-13.16
70415;BMP280;57837;52.064;113.478;2024-03-08T00:05:06;94160.34;;;-13.15
70415;BMP280;57837;52.064;113.478;2024-03-08T00:08:12;94156.06;;;-13.09
70415;BMP280;57837;52.064;113.478;2024-03-08T00:11:15;94156.56;;;-13.12
70415;BMP280;57837;52.064;113.478;2024-03-08T00:14:19;94160.22;;;-12.99
70415;BMP280;57837;52.064;113.478;2024-03-08T00:17:23;94155.78;;;-12.74
70415;BMP280;57837;52.064;113.478;2024-03-08T00:20:27;94148.88;;;-12.58
70415;BMP280;57837;52.064;113.478;2024-03-08T00:23:30;94157.97;;;-12.67
70415;BMP280;57837;52.064;113.478;2024-03-08T00:26:35;94158.06;;;-12.29
70415;BMP280;57837;52.064;113.478;2024-03-08T00:29:39;94157.63;;;-11.70
70415;BMP280;57837;52.064;113.478;2024-03-08T00:32:43;94157.81;;;-11.66
70415;BMP280;57837;52.064;113.478;2024-03-08T00:35:47;94164.25;;;-11.60
70415;BMP280;57837;52.064;113.478;2024-03-08T00:38:50;94161.88;;;-11.51
70415;BMP280;57837;52.064;113.478;2024-03-08T00:41:54;94161.09;;;-11.33
70415;BMP280;57837;52.064;113.478;2024-03-08T00:44:58;94164.78;;;-11.12
70415;BMP280;57837;52.064;113.478;2024-03-08T00:48:02;94166.69;;;-10.90
70415;BMP280;57837;52.064;113.478;2024-03-08T00:51:07;94170.00;;;-10.48
70415;BMP280;57837;52.064;113.478;2024-03-08T00:54:11;94169.06;;;-10.11
70415;BMP280;57837;52.064;113.478;2024-03-08T00:57:27;94169.75;;;-9.83
70415;BMP280;57837;52.064;113.478;2024-03-08T01:00:31;94165.84;;;-9.39
70415;BMP280;57837;52.064;113.478;2024-03-08T01:03:36;94160.47;;;-9.02
70415;BMP280;57837;52.064;113.478;2024-03-08T01:06:40;94165.09;;;-8.55
70415;BMP280;57837;52.064;113.478;2024-03-08T01:09:44;94159.47;;;-8.21
70415;BMP280;57837;52.064;113.478;2024-03-08T01:12:47;94154.56;;;-8.18
70415;BMP280;57837;52.064;113.478;2024-03-08T01:15:51;94159.88;;;-8.19
70415;BMP280;57837;52.064;113.478;2024-03-08T01:18:54;94155.34;;;-7.83
70415;BMP280;57837;52.064;113.478;2024-03-08T01:21:58;94157.84;;;-7.83
70415;BMP280;57837;52.064;113.478;2024-03-08T01:25:01;94160.06;;;-7.47
70415;BMP280;57837;52.064;113.478;2024-03-08T01:28:07;94158.28;;;-7.29
70415;BMP280;57837;52.064;113.478;2024-03-08T01:31:10;94155.81;;;-6.99
70415;BMP280;57837;52.064;113.478;2024-03-08T01:34:15;94157.75;;;-6.96
70415;BMP280;57837;52.064;113.478;2024-03-08T01:37:19;94152.16;;;-6.34
70415;BMP280;57837;52.064;113.478;2024-03-08T01:40:23;94150.53;;;-6.30
70415;BMP280;57837;52.064;113.478;2024-03-08T01:43:27;94152.72;;;-6.29
70415;BMP280;57837;52.064;113.478;2024-03-08T01:46:32;94153.94;;;-5.93
70415;BMP280;57837;52.064;113.478;2024-03-08T01:49:35;94152.94;;;-5.59
70415;BMP280;57837;52.064;113.478;2024-03-08T01:52:39;94153.97;;;-5.39
70415;BMP280;57837;52.064;113.478;2024-03-08T01:55:45;94141.56;;;-5.32
70415;BMP280;57837;52.064;113.478;2024-03-08T01:58:50;94141.69;;;-5.29
70415;BMP280;57837;52.064;113.478;2024-03-08T02:01:55;94139.84;;;-5.07
70415;BMP280;57837;52.064;113.478;2024-03-08T02:05:02;94133.94;;;-4.38
70415;BMP280;57837;52.064;113.478;2024-03-08T02:08:06;94127.41;;;-3.99
70415;BMP280;57837;52.064;113.478;2024-03-08T02:11:11;94125.91;;;-3.88
70415;BMP280;57837;52.064;113.478;2024-03-08T02:14:16;94127.94;;;-4.06
70415;BMP280;57837;52.064;113.478;2024-03-08T02:17:20;94123.94;;;-3.94
70415;BMP280;57837;52.064;113.478;2024-03-08T02:20:28;94125.59;;;-3.86
70415;BMP280;57837;52.064;113.478;2024-03-08T02:23:32;94120.34;;;-3.50
70415;BMP280;57837;52.064;113.478;2024-03-08T02:26:36;94117.38;;;-2.73
70415;BMP280;57837;52.064;113.478;2024-03-08T02:29:42;94117.84;;;-2.52
70415;BMP280;57837;52.064;113.478;2024-03-08T02:32:48;94117.50;;;-1.73
70415;BMP280;57837;52.064;113.478;2024-03-08T02:35:51;94108.66;;;-1.37
70415;BMP280;57837;52.064;113.478;2024-03-08T02:38:55;94109.72;;;-2.03
70415;BMP280;57837;52.064;113.478;2024-03-08T02:41:58;94112.22;;;-1.64
70415;BMP280;57837;52.064;113.478;2024-03-08T02:45:02;94114.00;;;-0.93
70415;BMP280;57837;52.064;113.478;2024-03-08T02:48:08;94107.28;;;-0.52
70415;BMP280;57837;52.064;113.478;2024-03-08T02:51:13;94100.38;;;-0.21
70415;BMP280;57837;52.064;113.478;2024-03-08T02:54:16;94095.69;;;-0.79
70415;BMP280;57837;52.064;113.478;2024-03-08T02:57:20;94094.94;;;-1.32
70415;BMP280;57837;52.064;113.478;2024-03-08T03:00:23;94098.09;;;-1.39
70415;BMP280;57837;52.064;113.478;2024-03-08T03:03:27;94098.94;;;-1.31
70415;BMP280;57837;52.064;113.478;2024-03-08T03:06:31;94091.09;;;-0.70
70415;BMP280;57837;52.064;113.478;2024-03-08T03:09:34;94092.66;;;-0.32
70415;BMP280;57837;52.064;113.478;2024-03-08T03:12:38;94091.84;;;-0.06
70415;BMP280;57837;52.064;113.478;2024-03-08T03:15:46;94102.09;;;0.05
70415;BMP280;57837;52.064;113.478;2024-03-08T03:18:49;94090.75;;;0.39
70415;BMP280;57837;52.064;113.478;2024-03-08T03:21:53;94086.13;;;0.08
70415;BMP280;57837;52.064;113.478;2024-03-08T03:24:56;94076.72;;;0.12
70415;BMP280;57837;52.064;113.478;2024-03-08T03:28:02;94084.13;;;-0.13
70415;BMP280;57837;52.064;113.478;2024-03-08T03:31:08;94074.31;;;-0.75
70415;BMP280;57837;52.064;113.478;2024-03-08T03:34:17;94077.53;;;-1.08
70415;BMP280;57837;52.064;113.478;2024-03-08T03:37:20;94069.97;;;-1.04
70415;BMP280;57837;52.064;113.478;2024-03-08T03:40:24;94061.47;;;-0.59
70415;BMP280;57837;52.064;113.478;2024-03-08T03:43:29;94067.50;;;-0.04
70415;BMP280;57837;52.064;113.478;2024-03-08T03:46:33;94063.00;;;0.20
70415;BMP280;57837;52.064;113.478;2024-03-08T03:49:37;94059.00;;;-0.18
70415;BMP280;57837;52.064;113.478;2024-03-08T03:52:40;94051.88;;;-0.39
70415;BMP280;57837;52.064;113.478;2024-03-08T03:55:44;94048.16;;;-0.12
70415;BMP280;57837;52.064;113.478;2024-03-08T03:58:49;94041.59;;;0.24
70415;BMP280;57837;52.064;113.478;2024-03-08T04:01:55;94042.78;;;0.45
70415;BMP280;57837;52.064;113.478;2024-03-08T04:04:58;94044.50;;;0.30
70415;BMP280;57837;52.064;113.478;2024-03-08T04:08:01;94037.41;;;0.57
70415;BMP280;57837;52.064;113.478;2024-03-08T04:11:06;94031.75;;;0.85
70415;BMP280;57837;52.064;113.478;2024-03-08T04:14:09;94037.94;;;0.80
70415;BMP280;57837;52.064;113.478;2024-03-08T04:17:13;94030.00;;;0.38
70415;BMP280;57837;52.064;113.478;2024-03-08T04:20:16;94029.53;;;0.18
70415;BMP280;57837;52.064;113.478;2024-03-08T04:23:21;94028.84;;;0.24
70415;BMP280;57837;52.064;113.478;2024-03-08T04:26:24;94016.91;;;0.32
70415;BMP280;57837;52.064;113.478;2024-03-08T04:29:29;94013.72;;;0.49
70415;BMP280;57837;52.064;113.478;2024-03-08T04:32:35;94007.81;;;0.38
70415;BMP280;57837;52.064;113.478;2024-03-08T04:35:38;94016.78;;;0.73
70415;BMP280;57837;52.064;113.478;2024-03-08T04:38:41;94010.22;;;0.72
70415;BMP280;57837;52.064;113.478;2024-03-08T04:41:46;93998.34;;;0.31
70415;BMP280;57837;52.064;113.478;2024-03-08T04:44:49;93996.88;;;0.30
70415;BMP280;57837;52.064;113.478;2024-03-08T04:47:52;93997.97;;;0.29
70415;BMP280;57837;52.064;113.478;2024-03-08T04:50:55;93989.13;;;0.13
70415;BMP280;57837;52.064;113.478;2024-03-08T04:54:00;93984.84;;;0.27
70415;BMP280;57837;52.064;113.478;2024-03-08T04:57:04;93976.78;;;0.15
70415;BMP280;57837;52.064;113.478;2024-03-08T05:00:11;93983.00;;;0.17
70415;BMP280;57837;52.064;113.478;2024-03-08T05:03:15;93972.94;;;0.42
70415;BMP280;57837;52.064;113.478;2024-03-08T05:06:19;93967.09;;;0.38
70415;BMP280;57837;52.064;113.478;2024-03-08T05:09:24;93962.09;;;0.52
70415;BMP280;57837;52.064;113.478;2024-03-08T05:12:28;93946.50;;;0.61
70415;BMP280;57837;52.064;113.478;2024-03-08T05:15:31;93954.03;;;0.43
70415;BMP280;57837;52.064;113.478;2024-03-08T05:18:37;93939.47;;;0.40
70415;BMP280;57837;52.064;113.478;2024-03-08T05:21:41;93946.72;;;0.38
70415;BMP280;57837;52.064;113.478;2024-03-08T05:24:44;93931.88;;;0.47
70415;BMP280;57837;52.064;113.478;2024-03-08T05:27:48;93935.94;;;0.59
70415;BMP280;57837;52.064;113.478;2024-03-08T05:30:51;93937.06;;;0.65
70415;BMP280;57837;52.064;113.478;2024-03-08T05:33:54;93924.78;;;0.81
70415;BMP280;57837;52.064;113.478;2024-03-08T05:36:59;93923.34;;;0.91
70415;BMP280;57837;52.064;113.478;2024-03-08T05:40:03;93912.84;;;1.10
70415;BMP280;57837;52.064;113.478;2024-03-08T05:43:18;93912.53;;;1.51
70415;BMP280;57837;52.064;113.478;2024-03-08T05:46:22;93904.88;;;1.47
70415;BMP280;57837;52.064;113.478;2024-03-08T05:49:26;93911.06;;;1.35
70415;BMP280;57837;52.064;113.478;2024-03-08T05:52:29;93902.34;;;1.33
70415;BMP280;57837;52.064;113.478;2024-03-08T05:55:33;93904.16;;;1.32
70415;BMP280;57837;52.064;113.478;2024-03-08T05:58:40;93894.69;;;1.33
70415;BMP280;57837;52.064;113.478;2024-03-08T06:01:44;93882.66;;;1.48
70415;BMP280;57837;52.064;113.478;2024-03-08T06:04:49;93887.78;;;1.62
70415;BMP280;57837;52.064;113.478;2024-03-08T06:07:53;93884.13;;;1.73
70415;BMP280;57837;52.064;113.478;2024-03-08T06:10:57;93882.66;;;1.76
70415;BMP280;57837;52.064;113.478;2024-03-08T06:14:02;93875.00;;;1.69
70415;BMP280;57837;52.064;113.478;2024-03-08T06:17:06;93879.38;;;1.65
70415;BMP280;57837;52.064;113.478;2024-03-08T06:20:10;93873.53;;;1.82
70415;BMP280;57837;52.064;113.478;2024-03-08T06:23:16;93862.22;;;1.87
70415;BMP280;57837;52.064;113.478;2024-03-08T06:26:22;93860.06;;;1.85
70415;BMP280;57837;52.064;113.478;2024-03-08T06:29:27;93856.06;;;1.84
70415;BMP280;57837;52.064;113.478;2024-03-08T06:32:31;93849.06;;;2.13
70415;BMP280;57837;52.064;113.478;2024-03-08T06:35:38;93850.41;;;2.35
70415;BMP280;57837;52.064;113.478;2024-03-08T06:38:41;93842.00;;;2.42
70415;BMP280;57837;52.064;113.478;2024-03-08T06:41:45;93845.66;;;2.45
70415;BMP280;57837;52.064;113.478;2024-03-08T06:44:49;93845.31;;;2.39
70415;BMP280;57837;52.064;113.478;2024-03-08T06:47:53;93846.03;;;2.43
70415;BMP280;57837;52.064;113.478;2024-03-08T06:50:58;93846.75;;;2.40
70415;BMP280;57837;52.064;113.478;2024-03-08T06:54:03;93827.84;;;2.23
70415;BMP280;57837;52.064;113.478;2024-03-08T06:57:16;93833.31;;;2.25
70415;BMP280;57837;52.064;113.478;2024-03-08T07:00:20;93827.78;;;2.41
70415;BMP280;57837;52.064;113.478;2024-03-08T07:03:25;93826.63;;;2.56
70415;BMP280;57837;52.064;113.478;2024-03-08T07:06:29;93817.88;;;2.47
70415;BMP280;57837;52.064;113.478;2024-03-08T07:09:36;93825.91;;;2.52
70415;BMP280;57837;52.064;113.478;2024-03-08T07:12:41;93820.28;;;2.75
70415;BMP280;57837;52.064;113.478;2024-03-08T07:15:45;93822.47;;;2.80
70415;BMP280;57837;52.064;113.478;2024-03-08T07:18:48;93815.59;;;2.70
70415;BMP280;57837;52.064;113.478;2024-03-08T07:21:56;93807.59;;;2.64
70415;BMP280;57837;52.064;113.478;2024-03-08T07:24:59;93807.63;;;2.61
70415;BMP280;57837;52.064;113.478;2024-03-08T07:28:21;93816.34;;;2.67
70415;BMP280;57837;52.064;113.478;2024-03-08T07:31:25;93809.81;;;2.59
70415;BMP280;57837;52.064;113.478;2024-03-08T07:34:29;93808.38;;;2.54
70415;BMP280;57837;52.064;113.478;2024-03-08T07:37:35;93805.03;;;2.64
70415;BMP280;57837;52.064;113.478;2024-03-08T07:40:40;93808.59;;;2.77
70415;BMP280;57837;52.064;113.478;2024-03-08T07:43:47;93804.56;;;2.84
70415;BMP280;57837;52.064;113.478;2024-03-08T07:46:52;93796.56;;;2.78
70415;BMP280;57837;52.064;113.478;2024-03-08T07:49:59;93792.88;;;2.86
70415;BMP280;57837;52.064;113.478;2024-03-08T07:53:07;93796.41;;;2.99
70415;BMP280;57837;52.064;113.478;2024-03-08T07:56:11;93793.50;;;2.97
70415;BMP280;57837;52.064;113.478;2024-03-08T07:59:17;93792.88;;;2.83
70415;BMP280;57837;52.064;113.478;2024-03-08T08:02:21;93794.66;;;2.89
70415;BMP280;57837;52.064;113.478;2024-03-08T08:05:25;93792.03;;;3.00
70415;BMP280;57837;52.064;113.478;2024-03-08T08:08:29;93790.88;;;3.08
70415;BMP280;57837;52.064;113.478;2024-03-08T08:11:34;93789.38;;;3.14
70415;BMP280;57837;52.064;113.478;2024-03-08T08:14:37;93789.00;;;3.12
70415;BMP280;57837;52.064;113.478;2024-03-08T08:17:44;93785.00;;;3.11
70415;BMP280;57837;52.064;113.478;2024-03-08T08:20:48;93793.78;;;3.06
70415;BMP280;57837;52.064;113.478;2024-03-08T08:23:53;93785.38;;;3.09
70415;BMP280;57837;52.064;113.478;2024-03-08T08:26:56;93791.91;;;3.14
70415;BMP280;57837;52.064;113.478;2024-03-08T08:30:00;93794.16;;;3.08
70415;BMP280;57837;52.064;113.478;2024-03-08T08:33:04;93793.06;;;3.06
70415;BMP280;57837;52.064;113.478;2024-03-08T08:36:08;93788.69;;;3.06
70415;BMP280;57837;52.064;113.478;2024-03-08T08:39:13;93795.94;;;3.15
70415;BMP280;57837;52.064;113.478;2024-03-08T08:42:16;93789.72;;;3.16
70415;BMP280;57837;52.064;113.478;2024-03-08T08:45:21;93787.94;;;3.09
70415;BMP280;57837;52.064;113.478;2024-03-08T08:48:28;93779.56;;;3.02
70415;BMP280;57837;52.064;113.478;2024-03-08T08:51:34;93778.03;;;3.15
70415;BMP280;57837;52.064;113.478;2024-03-08T08:54:38;93777.34;;;3.11
70415;BMP280;57837;52.064;113.478;2024-03-08T08:57:42;93777.00;;;3.05
70415;BMP280;57837;52.064;113.478;2024-03-08T09:00:46;93784.75;;;2.95
70415;BMP280;57837;52.064;113.478;2024-03-08T09:03:50;93776.78;;;2.89
70415;BMP280;57837;52.064;113.478;2024-03-08T09:06:53;93776.81;;;2.82
70415;BMP280;57837;52.064;113.478;2024-03-08T09:09:57;93778.66;;;2.82
70415;BMP280;57837;52.064;113.478;2024-03-08T09:13:17;93778.25;;;2.87
70415;BMP280;57837;52.064;113.478;2024-03-08T09:16:33;93770.38;;;3.11
70415;BMP280;57837;52.064;113.478;2024-03-08T09:19:37;93770.88;;;2.96
70415;BMP280;57837;52.064;113.478;2024-03-08T09:22:43;93765.88;;;2.78
70415;BMP280;57837;52.064;113.478;2024-03-08T09:25:47;93764.94;;;2.58
70415;BMP280;57837;52.064;113.478;2024-03-08T09:28:52;93764.59;;;2.52
70415;BMP280;57837;52.064;113.478;2024-03-08T09:31:58;93760.97;;;2.50
70415;BMP280;57837;52.064;113.478;2024-03-08T09:35:01;93761.69;;;2.50
70415;BMP280;57837;52.064;113.478;2024-03-08T09:38:05;93758.06;;;2.48
70415;BMP280;57837;52.064;113.478;2024-03-08T09:41:09;93760.59;;;2.51
70415;BMP280;57837;52.064;113.478;2024-03-08T09:44:16;93755.56;;;2.40
70415;BMP280;57837;52.064;113.478;2024-03-08T09:47:22;93761.41;;;2.34
70415;BMP280;57837;52.064;113.478;2024-03-08T09:50:28;93762.56;;;2.26
70415;BMP280;57837;52.064;113.478;2024-03-08T09:53:35;93761.53;;;2.16
70415;BMP280;57837;52.064;113.478;2024-03-08T09:56:41;93767.38;;;2.06
70415;BMP280;57837;52.064;113.478;2024-03-08T09:59:48;93772.13;;;2.00
70415;BMP280;57837;52.064;113.478;2024-03-08T10:02:53;93775.78;;;1.99
70415;BMP280;57837;52.064;113.478;2024-03-08T10:05:58;93774.38;;;1.88
70415;BMP280;57837;52.064;113.478;2024-03-08T10:09:08;93774.06;;;1.71
70415;BMP280;57837;52.064;113.478;2024-03-08T10:12:16;93774.09;;;1.61
70415;BMP280;57837;52.064;113.478;2024-03-08T10:15:22;93770.44;;;1.51
70415;BMP280;57837;52.064;113.478;2024-03-08T10:18:30;93775.56;;;1.41
70415;BMP280;57837;52.064;113.478;2024-03-08T10:21:48;93778.16;;;1.30
70415;BMP280;57837;52.064;113.478;2024-03-08T10:24:57;93789.41;;;1.15
70415;BMP280;57837;52.064;113.478;2024-03-08T10:28:14;93791.25;;;1.00
70415;BMP280;57837;52.064;113.478;2024-03-08T10:31:18;93797.75;;;0.83
70415;BMP280;57837;52.064;113.478;2024-03-08T10:34:26;93796.66;;;0.74
70415;BMP280;57837;52.064;113.478;2024-03-08T10:37:32;93798.44;;;0.66
70415;BMP280;57837;52.064;113.478;2024-03-08T10:40:39;93801.34;;;0.61
70415;BMP280;57837;52.064;113.478;2024-03-08T10:47:27;93806.03;;;0.45
70415;BMP280;57837;52.064;113.478;2024-03-08T10:50:30;93803.81;;;0.36
70415;BMP280;57837;52.064;113.478;2024-03-08T10:53:46;93812.19;;;0.40
70415;BMP280;57837;52.064;113.478;2024-03-08T10:56:52;93807.84;;;0.41
70415;BMP280;57837;52.064;113.478;2024-03-08T10:59:59;93804.19;;;0.31
70415;BMP280;57837;52.064;113.478;2024-03-08T11:03:05;93801.97;;;0.19
70415;BMP280;57837;52.064;113.478;2024-03-08T11:06:29;93810.66;;;0.14
70415;BMP280;57837;52.064;113.478;2024-03-08T11:09:36;93809.88;;;0.03
70415;BMP280;57837;52.064;113.478;2024-03-08T11:12:46;93813.13;;;-0.07
70415;BMP280;57837;52.064;113.478;2024-03-08T11:15:54;93810.47;;;-0.21
70415;BMP280;57837;52.064;113.478;2024-03-08T11:22:22;93795.41;;;-0.44
70415;BMP280;57837;52.064;113.478;2024-03-08T11:25:40;93797.91;;;-0.55
70415;BMP280;57837;52.064;113.478;2024-03-08T11:32:35;93802.06;;;-0.84
70415;BMP280;57837;52.064;113.478;2024-03-08T11:35:42;93808.16;;;-0.92
70415;BMP280;57837;52.064;113.478;2024-03-08T11:39:13;93801.88;;;-1.02
70415;BMP280;57837;52.064;113.478;2024-03-08T11:42:19;93805.47;;;-1.10
70415;BMP280;57837;52.064;113.478;2024-03-08T11:45:28;93810.44;;;-1.20
70415;BMP280;57837;52.064;113.478;2024-03-08T11:48:33;93809.28;;;-1.26
70415;BMP280;57837;52.064;113.478;2024-03-08T11:51:43;93813.19;;;-1.32
70415;BMP280;57837;52.064;113.478;2024-03-08T11:54:53;93817.81;;;-1.42
70415;BMP280;57837;52.064;113.478;2024-03-08T11:58:03;93817.59;;;-1.59
70415;BMP280;57837;52.064;113.478;2024-03-08T12:01:18;93819.56;;;-1.46
70415;BMP280;57837;52.064;113.478;2024-03-08T12:04:24;93813.19;;;-1.66
70415;BMP280;57837;52.064;113.478;2024-03-08T12:07:30;93816.84;;;-1.90
70415;BMP280;57837;52.064;113.478;2024-03-08T12:10:38;93816.28;;;-2.06
70415;BMP280;57837;52.064;113.478;2024-03-08T12:13:42;93810.34;;;-2.17
70415;BMP280;57837;52.064;113.478;2024-03-08T12:16:51;93815.72;;;-2.22
70415;BMP280;57837;52.064;113.478;2024-03-08T12:20:11;93809.75;;;-2.34
70415;BMP280;57837;52.064;113.478;2024-03-08T12:23:18;93810.31;;;-2.44
70415;BMP280;57837;52.064;113.478;2024-03-08T12:26:27;93802.16;;;-2.60
70415;BMP280;57837;52.064;113.478;2024-03-08T12:29:31;93814.00;;;-2.64
70415;BMP280;57837;52.064;113.478;2024-03-08T12:32:36;93817.88;;;-2.70
70415;BMP280;57837;52.064;113.478;2024-03-08T12:35:53;93817.53;;;-2.69
70415;BMP280;57837;52.064;113.478;2024-03-08T12:38:59;93812.38;;;-2.76
70415;BMP280;57837;52.064;113.478;2024-03-08T12:42:06;93820.25;;;-2.81
70415;BMP280;57837;52.064;113.478;2024-03-08T12:45:10;93814.34;;;-2.88
70415;BMP280;57837;52.064;113.478;2024-03-08T12:48:18;93810.28;;;-2.93
70415;BMP280;57837;52.064;113.478;2024-03-08T12:51:24;93825.22;;;-3.07
70415;BMP280;57837;52.064;113.478;2024-03-08T12:54:28;93818.25;;;-3.14
70415;BMP280;57837;52.064;113.478;2024-03-08T12:57:33;93825.22;;;-3.26
70415;BMP280;57837;52.064;113.478;2024-03-08T13:00:39;93828.19;;;-3.44
70415;BMP280;57837;52.064;113.478;2024-03-08T13:03:53;93825.81;;;-3.52
70415;BMP280;57837;52.064;113.478;2024-03-08T13:06:58;93830.75;;;-3.59
70415;BMP280;57837;52.064;113.478;2024-03-08T13:10:02;93839.25;;;-3.68
70415;BMP280;57837;52.064;113.478;2024-03-08T13:13:06;93839.19;;;-3.71
70415;BMP280;57837;52.064;113.478;2024-03-08T13:16:13;93839.19;;;-3.71
70415;BMP280;57837;52.064;113.478;2024-03-08T13:19:25;93844.59;;;-3.73
70415;BMP280;57837;52.064;113.478;2024-03-08T13:22:31;93835.19;;;-3.72
70415;BMP280;57837;52.064;113.478;2024-03-08T13:25:34;93830.56;;;-3.70
70415;BMP280;57837;52.064;113.478;2024-03-08T13:28:46;93835.50;;;-3.74
70415;BMP280;57837;52.064;113.478;2024-03-08T13:31:52;93837.47;;;-3.83
70415;BMP280;57837;52.064;113.478;2024-03-08T13:35:08;93835.66;;;-3.86
70415;BMP280;57837;52.064;113.478;2024-03-08T13:38:18;93842.34;;;-3.93
70415;BMP280;57837;52.064;113.478;2024-03-08T13:41:24;93850.66;;;-4.09
70415;BMP280;57837;52.064;113.478;2024-03-08T13:44:27;93848.47;;;-4.26
70415;BMP280;57837;52.064;113.478;2024-03-08T13:47:31;93853.19;;;-4.40
70415;BMP280;57837;52.064;113.478;2024-03-08T13:50:34;93854.81;;;-4.48
70415;BMP280;57837;52.064;113.478;2024-03-08T13:53:39;93854.22;;;-4.57
70415;BMP280;57837;52.064;113.478;2024-03-08T13:56:44;93859.09;;;-4.64
70415;BMP280;57837;52.064;113.478;2024-03-08T13:59:49;93862.63;;;-4.69
70415;BMP280;57837;52.064;113.478;2024-03-08T14:02:55;93854.84;;;-4.76
70415;BMP280;57837;52.064;113.478;2024-03-08T14:05:58;93859.16;;;-4.76
70415;BMP280;57837;52.064;113.478;2024-03-08T14:09:03;93860.03;;;-4.72
70415;BMP280;57837;52.064;113.478;2024-03-08T14:12:11;93859.69;;;-4.71
70415;BMP280;57837;52.064;113.478;2024-03-08T14:15:24;93858.38;;;-4.65
70415;BMP280;57837;52.064;113.478;2024-03-08T14:18:29;93851.16;;;-4.66
70415;BMP280;57837;52.064;113.478;2024-03-08T14:21:33;93852.25;;;-4.79
70415;BMP280;57837;52.064;113.478;2024-03-08T14:24:38;93856.88;;;-4.81
70415;BMP280;57837;52.064;113.478;2024-03-08T14:27:46;93852.16;;;-4.83
70415;BMP280;57837;52.064;113.478;2024-03-08T14:30:55;93858.31;;;-4.96
70415;BMP280;57837;52.064;113.478;2024-03-08T14:34:01;93853.94;;;-5.11
70415;BMP280;57837;52.064;113.478;2024-03-08T14:37:07;93848.56;;;-5.26
70415;BMP280;57837;52.064;113.478;2024-03-08T14:40:15;93849.63;;;-5.27
70415;BMP280;57837;52.064;113.478;2024-03-08T14:43:20;93848.56;;;-5.26
70415;BMP280;57837;52.064;113.478;2024-03-08T14:46:25;93855.16;;;-5.21
70415;BMP280;57837;52.064;113.478;2024-03-08T14:49:30;93857.59;;;-5.37
70415;BMP280;57837;52.064;113.478;2024-03-08T14:52:36;93859.91;;;-5.32
70415;BMP280;57837;52.064;113.478;2024-03-08T14:55:40;93861.03;;;-5.29
70415;BMP280;57837;52.064;113.478;2024-03-08T14:58:45;93856.44;;;-5.39
70415;BMP280;57837;52.064;113.478;2024-03-08T15:01:50;93857.59;;;-5.37
70415;BMP280;57837;52.064;113.478;2024-03-08T15:04:55;93857.69;;;-5.33
70415;BMP280;57837;52.064;113.478;2024-03-08T15:08:02;93858.75;;;-5.34
70415;BMP280;57837;52.064;113.478;2024-03-08T15:11:15;93855.81;;;-5.24
70415;BMP280;57837;52.064;113.478;2024-03-08T15:14:25;93865.47;;;-5.26
70415;BMP280;57837;52.064;113.478;2024-03-08T15:17:30;93862.00;;;-5.34
70415;BMP280;57837;52.064;113.478;2024-03-08T15:20:35;93866.25;;;-5.62
70415;BMP280;57837;52.064;113.478;2024-03-08T15:23:39;93863.63;;;-5.90
70415;BMP280;57837;52.064;113.478;2024-03-08T15:26:50;93868.38;;;-6.13
70415;BMP280;57837;52.064;113.478;2024-03-08T15:29:57;93871.47;;;-6.28
70415;BMP280;57837;52.064;113.478;2024-03-08T15:33:02;93876.31;;;-6.23
70415;BMP280;57837;52.064;113.478;2024-03-08T15:36:06;93875.69;;;-6.20
70415;BMP280;57837;52.064;113.478;2024-03-08T15:39:12;93879.38;;;-6.30
70415;BMP280;57837;52.064;113.478;2024-03-08T15:42:17;93879.97;;;-6.33
70415;BMP280;57837;52.064;113.478;2024-03-08T15:45:22;93882.75;;;-6.59
70415;BMP280;57837;52.064;113.478;2024-03-08T15:48:33;93878.09;;;-6.69
70415;BMP280;57837;52.064;113.478;2024-03-08T15:51:39;93884.84;;;-6.61
70415;BMP280;57837;52.064;113.478;2024-03-08T15:54:44;93885.69;;;-6.57
70415;BMP280;57837;52.064;113.478;2024-03-08T15:57:50;93880.06;;;-6.41
70415;BMP280;57837;52.064;113.478;2024-03-08T16:00:55;93877.97;;;-6.27
70415;BMP280;57837;52.064;113.478;2024-03-08T16:04:01;93879.41;;;-6.51
70415;BMP280;57837;52.064;113.478;2024-03-08T16:07:05;93876.63;;;-6.70
70415;BMP280;57837;52.064;113.478;2024-03-08T16:10:10;93873.38;;;-6.70
70415;BMP280;57837;52.064;113.478;2024-03-08T16:13:16;93872.34;;;-6.69
70415;BMP280;57837;52.064;113.478;2024-03-08T16:16:20;93877.09;;;-6.89
70415;BMP280;57837;52.064;113.478;2024-03-08T16:19:26;93877.00;;;-7.01
70415;BMP280;57837;52.064;113.478;2024-03-08T16:22:30;93873.28;;;-6.95
70415;BMP280;57837;52.064;113.478;2024-03-08T16:25:35;93882.84;;;-6.88
70415;BMP280;57837;52.064;113.478;2024-03-08T16:28:40;93876.03;;;-6.88
70415;BMP280;57837;52.064;113.478;2024-03-08T16:31:44;93877.44;;;-6.99
70415;BMP280;57837;52.064;113.478;2024-03-08T16:34:48;93891.69;;;-7.03
70415;BMP280;57837;52.064;113.478;2024-03-08T16:37:54;93881.69;;;-7.32
70415;BMP280;57837;52.064;113.478;2024-03-08T16:40:58;93889.03;;;-7.27
70415;BMP280;57837;52.064;113.478;2024-03-08T16:44:04;93880.53;;;-7.14
70415;BMP280;57837;52.064;113.478;2024-03-08T16:47:08;93878.94;;;-7.19
70415;BMP280;57837;52.064;113.478;2024-03-08T16:50:18;93884.94;;;-7.32
70415;BMP280;57837;52.064;113.478;2024-03-08T16:53:22;93886.47;;;-7.39
70415;BMP280;57837;52.064;113.478;2024-03-08T16:56:26;93894.00;;;-7.39
70415;BMP280;57837;52.064;113.478;2024-03-08T16:59:31;93906.03;;;-7.54
70415;BMP280;57837;52.064;113.478;2024-03-08T17:02:36;93901.69;;;-7.74
70415;BMP280;57837;52.064;113.478;2024-03-08T17:05:42;93892.88;;;-7.89
70415;BMP280;57837;52.064;113.478;2024-03-08T17:08:52;93894.91;;;-7.82
70415;BMP280;57837;52.064;113.478;2024-03-08T17:11:57;93891.47;;;-7.69
70415;BMP280;57837;52.064;113.478;2024-03-08T17:15:00;93888.78;;;-7.64
70415;BMP280;57837;52.064;113.478;2024-03-08T17:18:05;93893.03;;;-7.56
70415;BMP280;57837;52.064;113.478;2024-03-08T17:21:12;93887.63;;;-7.66
70415;BMP280;57837;52.064;113.478;2024-03-08T17:24:17;93898.44;;;-7.75
70415;BMP280;57837;52.064;113.478;2024-03-08T17:27:27;93887.38;;;-7.82
70415;BMP280;57837;52.064;113.478;2024-03-08T17:30:32;93888.34;;;-7.95
70415;BMP280;57837;52.064;113.478;2024-03-08T17:33:35;93894.28;;;-8.00
70415;BMP280;57837;52.064;113.478;2024-03-08T17:36:40;93900.47;;;-7.97